sensor_id;sensor_type;location;lat;lon;timestamp;temperature;humidity
25024;DHT22;13033;50.936;5.334;2023-09-19T00:00:43;16.70;99.90
25024;DHT22;13033;50.936;5.334;2023-09-19T00:03:12;16.70;99.90
25024;DHT22;13033;50.936;5.334;2023-09-19T00:05:39;16.80;99.90
25024;DHT22;13033;50.936;5.334;2023-09-19T00:08:05;16.70;99.90
25024;DHT22;13033;50.936;5.334;2023-09-19T00:10:32;16.70;99.90
25024;DHT22;13033;50.936;5.334;2023-09-19T00:13:00;16.70;99.90
25024;DHT22;13033;50.936;5.334;2023-09-19T00:15:31;16.70;99.90
25024;DHT22;13033;50.936;5.334;2023-09-19T00:18:01;16.70;99.90
25024;DHT22;13033;50.936;5.334;2023-09-19T00:20:26;16.60;99.90
25024;DHT22;13033;50.936;5.334;2023-09-19T00:22:52;16.60;99.90
25024;DHT22;13033;50.936;5.334;2023-09-19T00:25:19;16.60;99.90
25024;DHT22;13033;50.936;5.334;2023-09-19T00:27:44;16.60;99.90
25024;DHT22;13033;50.936;5.334;2023-09-19T00:30:11;16.60;99.90
25024;DHT22;13033;50.936;5.334;2023-09-19T00:32:45;16.60;99.90
25024;DHT22;13033;50.936;5.334;2023-09-19T00:35:13;16.50;99.90
25024;DHT22;13033;50.936;5.334;2023-09-19T00:37:41;16.60;99.90
25024;DHT22;13033;50.936;5.334;2023-09-19T00:40:08;16.60;99.90
25024;DHT22;13033;50.936;5.334;2023-09-19T00:42:47;16.60;99.90
25024;DHT22;13033;50.936;5.334;2023-09-19T00:45:14;16.60;99.90
25024;DHT22;13033;50.936;5.334;2023-09-19T00:47:50;16.60;99.90
25024;DHT22;13033;50.936;5.334;2023-09-19T00:50:18;16.60;99.90
25024;DHT22;13033;50.936;5.334;2023-09-19T00:52:46;16.60;99.90
25024;DHT22;13033;50.936;5.334;2023-09-19T00:55:14;16.80;99.90
25024;DHT22;13033;50.936;5.334;2023-09-19T00:57:41;16.80;99.90
25024;DHT22;13033;50.936;5.334;2023-09-19T01:00:08;16.80;99.90
25024;DHT22;13033;50.936;5.334;2023-09-19T01:02:42;16.70;99.90
25024;DHT22;13033;50.936;5.334;2023-09-19T01:05:12;16.70;99.90
25024;DHT22;13033;50.936;5.334;2023-09-19T01:07:38;16.60;99.90
25024;DHT22;13033;50.936;5.334;2023-09-19T01:10:09;16.60;99.90
25024;DHT22;13033;50.936;5.334;2023-09-19T01:27:04;16.30;99.90
25024;DHT22;13033;50.936;5.334;2023-09-19T01:29:39;16.30;99.90
25024;DHT22;13033;50.936;5.334;2023-09-19T01:32:06;16.20;99.90
25024;DHT22;13033;50.936;5.334;2023-09-19T01:37:17;16.20;99.90
25024;DHT22;13033;50.936;5.334;2023-09-19T01:39:49;16.20;99.90
25024;DHT22;13033;50.936;5.334;2023-09-19T01:46:04;16.20;99.90
25024;DHT22;13033;50.936;5.334;2023-09-19T01:48:19;16.20;99.90
25024;DHT22;13033;50.936;5.334;2023-09-19T01:51:02;16.20;99.90
25024;DHT22;13033;50.936;5.334;2023-09-19T01:53:33;16.10;99.90
25024;DHT22;13033;50.936;5.334;2023-09-19T01:56:02;16.20;99.90
25024;DHT22;13033;50.936;5.334;2023-09-19T02:01:04;16.30;99.90
25024;DHT22;13033;50.936;5.334;2023-09-19T02:03:33;16.20;99.90
25024;DHT22;13033;50.936;5.334;2023-09-19T02:06:00;16.10;99.90
25024;DHT22;13033;50.936;5.334;2023-09-19T02:08:26;16.10;99.90
25024;DHT22;13033;50.936;5.334;2023-09-19T02:10:52;15.90;99.90
25024;DHT22;13033;50.936;5.334;2023-09-19T02:13:19;16.00;99.90
25024;DHT22;13033;50.936;5.334;2023-09-19T02:15:46;15.90;99.90
25024;DHT22;13033;50.936;5.334;2023-09-19T02:18:15;15.80;99.90
25024;DHT22;13033;50.936;5.334;2023-09-19T02:20:41;15.90;99.90
25024;DHT22;13033;50.936;5.334;2023-09-19T02:23:07;15.90;99.90
25024;DHT22;13033;50.936;5.334;2023-09-19T02:25:33;16.00;99.90
25024;DHT22;13033;50.936;5.334;2023-09-19T02:28:00;15.90;99.90
25024;DHT22;13033;50.936;5.334;2023-09-19T02:30:28;15.80;99.90
25024;DHT22;13033;50.936;5.334;2023-09-19T02:32:54;15.80;99.90
25024;DHT22;13033;50.936;5.334;2023-09-19T02:35:20;15.90;99.90
25024;DHT22;13033;50.936;5.334;2023-09-19T02:37:46;15.90;99.90
25024;DHT22;13033;50.936;5.334;2023-09-19T02:40:12;15.90;99.90
25024;DHT22;13033;50.936;5.334;2023-09-19T02:42:48;16.00;99.90
25024;DHT22;13033;50.936;5.334;2023-09-19T02:45:16;15.80;99.90
25024;DHT22;13033;50.936;5.334;2023-09-19T02:47:43;15.90;99.90
25024;DHT22;13033;50.936;5.334;2023-09-19T02:50:09;15.80;99.90
25024;DHT22;13033;50.936;5.334;2023-09-19T02:52:44;15.80;99.90
25024;DHT22;13033;50.936;5.334;2023-09-19T02:55:14;15.80;99.90
25024;DHT22;13033;50.936;5.334;2023-09-19T02:57:49;15.80;99.90
25024;DHT22;13033;50.936;5.334;2023-09-19T03:00:16;15.80;99.90
25024;DHT22;13033;50.936;5.334;2023-09-19T03:02:42;15.80;99.90
25024;DHT22;13033;50.936;5.334;2023-09-19T03:05:08;15.70;99.90
25024;DHT22;13033;50.936;5.334;2023-09-19T03:07:37;15.80;99.90
25024;DHT22;13033;50.936;5.334;2023-09-19T03:10:06;15.70;99.90
25024;DHT22;13033;50.936;5.334;2023-09-19T03:12:33;15.70;99.90
25024;DHT22;13033;50.936;5.334;2023-09-19T03:14:59;15.80;99.90
25024;DHT22;13033;50.936;5.334;2023-09-19T03:17:25;15.70;99.90
25024;DHT22;13033;50.936;5.334;2023-09-19T03:19:51;15.70;99.90
25024;DHT22;13033;50.936;5.334;2023-09-19T03:22:16;15.70;99.90
25024;DHT22;13033;50.936;5.334;2023-09-19T03:24:43;15.80;99.90
25024;DHT22;13033;50.936;5.334;2023-09-19T03:27:10;15.80;99.90
25024;DHT22;13033;50.936;5.334;2023-09-19T03:29:36;15.70;99.90
25024;DHT22;13033;50.936;5.334;2023-09-19T03:32:02;15.80;99.90
25024;DHT22;13033;50.936;5.334;2023-09-19T03:34:29;15.60;99.90
25024;DHT22;13033;50.936;5.334;2023-09-19T03:36:54;15.60;99.90
25024;DHT22;13033;50.936;5.334;2023-09-19T03:39:21;15.70;99.90
25024;DHT22;13033;50.936;5.334;2023-09-19T03:41:46;15.70;99.90
25024;DHT22;13033;50.936;5.334;2023-09-19T03:44:12;15.80;99.90
25024;DHT22;13033;50.936;5.334;2023-09-19T03:46:38;15.80;99.90
25024;DHT22;13033;50.936;5.334;2023-09-19T03:49:04;15.80;99.90
25024;DHT22;13033;50.936;5.334;2023-09-19T03:51:29;15.80;99.90
25024;DHT22;13033;50.936;5.334;2023-09-19T03:53:55;15.90;99.90
25024;DHT22;13033;50.936;5.334;2023-09-19T03:56:21;15.90;99.90
25024;DHT22;13033;50.936;5.334;2023-09-19T03:58:47;15.90;99.90
25024;DHT22;13033;50.936;5.334;2023-09-19T04:01:13;15.90;99.90
25024;DHT22;13033;50.936;5.334;2023-09-19T04:03:39;15.80;99.90
25024;DHT22;13033;50.936;5.334;2023-09-19T04:06:15;15.60;99.90
25024;DHT22;13033;50.936;5.334;2023-09-19T04:08:42;15.60;99.90
25024;DHT22;13033;50.936;5.334;2023-09-19T04:11:08;15.70;99.90
25024;DHT22;13033;50.936;5.334;2023-09-19T04:13:34;15.60;99.90
25024;DHT22;13033;50.936;5.334;2023-09-19T04:15:59;15.80;99.90
25024;DHT22;13033;50.936;5.334;2023-09-19T04:18:26;15.90;99.90
25024;DHT22;13033;50.936;5.334;2023-09-19T04:20:52;15.80;99.90
25024;DHT22;13033;50.936;5.334;2023-09-19T04:23:18;15.90;99.90
25024;DHT22;13033;50.936;5.334;2023-09-19T04:25:47;15.80;99.90
25024;DHT22;13033;50.936;5.334;2023-09-19T04:28:13;15.90;99.90
25024;DHT22;13033;50.936;5.334;2023-09-19T04:30:39;15.90;99.90
25024;DHT22;13033;50.936;5.334;2023-09-19T04:33:08;15.90;99.90
25024;DHT22;13033;50.936;5.334;2023-09-19T04:35:33;16.00;99.90
25024;DHT22;13033;50.936;5.334;2023-09-19T04:38:00;15.90;99.90
25024;DHT22;13033;50.936;5.334;2023-09-19T04:40:26;16.10;99.90
25024;DHT22;13033;50.936;5.334;2023-09-19T04:42:56;16.20;99.90
25024;DHT22;13033;50.936;5.334;2023-09-19T04:45:25;16.10;99.90
25024;DHT22;13033;50.936;5.334;2023-09-19T04:47:52;16.10;99.90
25024;DHT22;13033;50.936;5.334;2023-09-19T04:50:18;15.90;99.90
25024;DHT22;13033;50.936;5.334;2023-09-19T04:52:44;15.90;99.90
25024;DHT22;13033;50.936;5.334;2023-09-19T04:55:14;15.70;99.90
25024;DHT22;13033;50.936;5.334;2023-09-19T04:57:50;15.60;99.90
25024;DHT22;13033;50.936;5.334;2023-09-19T05:00:18;15.70;99.90
25024;DHT22;13033;50.936;5.334;2023-09-19T05:02:45;15.60;99.90
25024;DHT22;13033;50.936;5.334;2023-09-19T05:05:11;15.40;99.90
25024;DHT22;13033;50.936;5.334;2023-09-19T05:07:39;15.40;99.90
25024;DHT22;13033;50.936;5.334;2023-09-19T05:10:05;15.40;99.90
25024;DHT22;13033;50.936;5.334;2023-09-19T05:12:35;15.40;99.90
25024;DHT22;13033;50.936;5.334;2023-09-19T05:15:04;15.30;99.90
25024;DHT22;13033;50.936;5.334;2023-09-19T05:17:32;15.40;99.90
25024;DHT22;13033;50.936;5.334;2023-09-19T05:19:58;15.50;99.90
25024;DHT22;13033;50.936;5.334;2023-09-19T05:22:27;15.30;99.90
25024;DHT22;13033;50.936;5.334;2023-09-19T05:24:52;15.40;99.90
25024;DHT22;13033;50.936;5.334;2023-09-19T05:27:19;15.30;99.90
25024;DHT22;13033;50.936;5.334;2023-09-19T05:29:46;15.20;99.90
25024;DHT22;13033;50.936;5.334;2023-09-19T05:32:12;15.10;99.90
25024;DHT22;13033;50.936;5.334;2023-09-19T05:34:38;15.20;99.90
25024;DHT22;13033;50.936;5.334;2023-09-19T05:37:05;15.30;99.90
25024;DHT22;13033;50.936;5.334;2023-09-19T05:39:33;15.30;99.90
25024;DHT22;13033;50.936;5.334;2023-09-19T05:41:59;15.20;99.90
25024;DHT22;13033;50.936;5.334;2023-09-19T05:44:25;15.20;99.90
25024;DHT22;13033;50.936;5.334;2023-09-19T05:46:51;15.20;99.90
25024;DHT22;13033;50.936;5.334;2023-09-19T05:49:17;15.30;99.90
25024;DHT22;13033;50.936;5.334;2023-09-19T05:51:43;15.20;99.90
25024;DHT22;13033;50.936;5.334;2023-09-19T05:54:09;15.30;99.90
25024;DHT22;13033;50.936;5.334;2023-09-19T05:56:36;15.20;99.90
25024;DHT22;13033;50.936;5.334;2023-09-19T05:59:02;15.20;99.90
25024;DHT22;13033;50.936;5.334;2023-09-19T06:01:29;15.20;99.90
25024;DHT22;13033;50.936;5.334;2023-09-19T06:03:58;15.20;99.90
25024;DHT22;13033;50.936;5.334;2023-09-19T06:06:26;15.10;99.90
25024;DHT22;13033;50.936;5.334;2023-09-19T06:08:52;15.20;99.90
25024;DHT22;13033;50.936;5.334;2023-09-19T06:11:18;15.30;99.90
25024;DHT22;13033;50.936;5.334;2023-09-19T06:13:45;15.20;99.90
25024;DHT22;13033;50.936;5.334;2023-09-19T06:16:12;15.30;99.90
25024;DHT22;13033;50.936;5.334;2023-09-19T06:18:38;15.30;99.90
25024;DHT22;13033;50.936;5.334;2023-09-19T06:21:04;15.30;99.90
25024;DHT22;13033;50.936;5.334;2023-09-19T06:23:33;15.30;99.90
25024;DHT22;13033;50.936;5.334;2023-09-19T06:25:59;15.30;99.90
25024;DHT22;13033;50.936;5.334;2023-09-19T06:28:25;15.50;99.90
25024;DHT22;13033;50.936;5.334;2023-09-19T06:30:54;15.40;99.90
25024;DHT22;13033;50.936;5.334;2023-09-19T06:33:20;15.40;99.90
25024;DHT22;13033;50.936;5.334;2023-09-19T06:35:47;15.40;99.90
25024;DHT22;13033;50.936;5.334;2023-09-19T06:38:13;15.40;99.90
25024;DHT22;13033;50.936;5.334;2023-09-19T06:40:41;15.50;99.90
25024;DHT22;13033;50.936;5.334;2023-09-19T06:43:10;15.60;99.90
25024;DHT22;13033;50.936;5.334;2023-09-19T06:45:36;15.50;99.90
25024;DHT22;13033;50.936;5.334;2023-09-19T06:48:02;15.50;99.90
25024;DHT22;13033;50.936;5.334;2023-09-19T06:50:28;15.60;99.90
25024;DHT22;13033;50.936;5.334;2023-09-19T06:52:58;15.80;99.90
25024;DHT22;13033;50.936;5.334;2023-09-19T06:55:26;16.00;99.90
25024;DHT22;13033;50.936;5.334;2023-09-19T06:57:57;16.00;99.90
25024;DHT22;13033;50.936;5.334;2023-09-19T07:00:23;16.10;99.90
25024;DHT22;13033;50.936;5.334;2023-09-19T07:02:56;16.10;99.90
25024;DHT22;13033;50.936;5.334;2023-09-19T07:05:23;16.00;99.90
25024;DHT22;13033;50.936;5.334;2023-09-19T07:07:48;16.00;99.90
25024;DHT22;13033;50.936;5.334;2023-09-19T07:10:14;16.10;99.90
25024;DHT22;13033;50.936;5.334;2023-09-19T07:12:41;16.10;99.90
25024;DHT22;13033;50.936;5.334;2023-09-19T07:15:08;16.20;99.90
25024;DHT22;13033;50.936;5.334;2023-09-19T07:17:34;16.40;99.90
25024;DHT22;13033;50.936;5.334;2023-09-19T07:20:00;16.40;99.90
25024;DHT22;13033;50.936;5.334;2023-09-19T07:22:26;16.40;99.90
25024;DHT22;13033;50.936;5.334;2023-09-19T07:24:52;16.40;99.90
25024;DHT22;13033;50.936;5.334;2023-09-19T07:27:18;16.50;99.90
25024;DHT22;13033;50.936;5.334;2023-09-19T07:29:43;16.30;99.90
25024;DHT22;13033;50.936;5.334;2023-09-19T07:32:10;16.40;99.90
25024;DHT22;13033;50.936;5.334;2023-09-19T07:34:37;16.40;99.90
25024;DHT22;13033;50.936;5.334;2023-09-19T07:37:06;16.50;99.90
25024;DHT22;13033;50.936;5.334;2023-09-19T07:39:32;16.60;99.90
25024;DHT22;13033;50.936;5.334;2023-09-19T07:41:57;16.70;99.90
25024;DHT22;13033;50.936;5.334;2023-09-19T07:44:23;16.80;99.90
25024;DHT22;13033;50.936;5.334;2023-09-19T07:46:51;16.70;99.90
25024;DHT22;13033;50.936;5.334;2023-09-19T07:49:17;16.70;99.90
25024;DHT22;13033;50.936;5.334;2023-09-19T07:51:43;16.80;99.90
25024;DHT22;13033;50.936;5.334;2023-09-19T07:54:12;16.90;99.90
25024;DHT22;13033;50.936;5.334;2023-09-19T07:56:38;17.00;99.90
25024;DHT22;13033;50.936;5.334;2023-09-19T07:59:04;17.10;99.90
25024;DHT22;13033;50.936;5.334;2023-09-19T08:01:29;17.00;99.90
25024;DHT22;13033;50.936;5.334;2023-09-19T08:03:55;17.20;99.90
25024;DHT22;13033;50.936;5.334;2023-09-19T08:06:21;17.00;99.90
25024;DHT22;13033;50.936;5.334;2023-09-19T08:08:47;17.10;99.90
25024;DHT22;13033;50.936;5.334;2023-09-19T08:11:16;17.20;99.90
25024;DHT22;13033;50.936;5.334;2023-09-19T08:13:47;17.20;99.90
25024;DHT22;13033;50.936;5.334;2023-09-19T08:16:15;17.40;99.90
25024;DHT22;13033;50.936;5.334;2023-09-19T08:18:41;17.40;99.90
25024;DHT22;13033;50.936;5.334;2023-09-19T08:21:07;17.50;99.90
25024;DHT22;13033;50.936;5.334;2023-09-19T08:23:36;17.60;99.90
25024;DHT22;13033;50.936;5.334;2023-09-19T08:26:02;17.50;99.90
25024;DHT22;13033;50.936;5.334;2023-09-19T08:28:36;17.60;99.90
25024;DHT22;13033;50.936;5.334;2023-09-19T08:31:05;17.70;99.90
25024;DHT22;13033;50.936;5.334;2023-09-19T08:33:35;17.70;99.90
25024;DHT22;13033;50.936;5.334;2023-09-19T08:36:02;17.70;99.90
25024;DHT22;13033;50.936;5.334;2023-09-19T08:38:31;17.70;99.90
25024;DHT22;13033;50.936;5.334;2023-09-19T08:40:59;17.60;99.90
25024;DHT22;13033;50.936;5.334;2023-09-19T08:43:26;17.80;99.90
25024;DHT22;13033;50.936;5.334;2023-09-19T08:46:02;18.00;99.90
25024;DHT22;13033;50.936;5.334;2023-09-19T08:48:29;17.90;99.90
25024;DHT22;13033;50.936;5.334;2023-09-19T08:51:01;17.90;99.90
25024;DHT22;13033;50.936;5.334;2023-09-19T08:56:09;17.90;99.90
25024;DHT22;13033;50.936;5.334;2023-09-19T08:58:44;18.10;99.90
25024;DHT22;13033;50.936;5.334;2023-09-19T09:01:15;18.00;99.90
25024;DHT22;13033;50.936;5.334;2023-09-19T09:03:43;18.20;99.90
25024;DHT22;13033;50.936;5.334;2023-09-19T09:06:14;18.40;99.90
25024;DHT22;13033;50.936;5.334;2023-09-19T09:08:42;18.40;99.90
25024;DHT22;13033;50.936;5.334;2023-09-19T09:11:08;18.20;99.90
25024;DHT22;13033;50.936;5.334;2023-09-19T09:13:36;18.20;99.90
25024;DHT22;13033;50.936;5.334;2023-09-19T09:16:02;18.30;99.90
25024;DHT22;13033;50.936;5.334;2023-09-19T09:18:29;18.50;99.90
25024;DHT22;13033;50.936;5.334;2023-09-19T09:20:57;18.60;99.90
25024;DHT22;13033;50.936;5.334;2023-09-19T09:23:23;18.80;99.90
25024;DHT22;13033;50.936;5.334;2023-09-19T09:25:52;18.90;99.90
25024;DHT22;13033;50.936;5.334;2023-09-19T09:28:26;19.10;99.90
25024;DHT22;13033;50.936;5.334;2023-09-19T09:30:53;18.90;99.90
25024;DHT22;13033;50.936;5.334;2023-09-19T09:33:20;19.00;99.90
25024;DHT22;13033;50.936;5.334;2023-09-19T09:35:57;19.00;99.90
25024;DHT22;13033;50.936;5.334;2023-09-19T09:38:46;19.10;99.90
25024;DHT22;13033;50.936;5.334;2023-09-19T09:41:15;19.10;99.90
25024;DHT22;13033;50.936;5.334;2023-09-19T09:43:53;19.00;99.90
25024;DHT22;13033;50.936;5.334;2023-09-19T09:46:20;19.10;99.90
25024;DHT22;13033;50.936;5.334;2023-09-19T09:49:07;19.40;99.90
25024;DHT22;13033;50.936;5.334;2023-09-19T09:52:05;19.50;99.90
25024;DHT22;13033;50.936;5.334;2023-09-19T09:55:01;19.50;99.90
25024;DHT22;13033;50.936;5.334;2023-09-19T09:57:31;19.50;99.90
25024;DHT22;13033;50.936;5.334;2023-09-19T09:59:58;19.30;99.90
25024;DHT22;13033;50.936;5.334;2023-09-19T10:02:29;19.40;99.90
25024;DHT22;13033;50.936;5.334;2023-09-19T10:04:58;19.50;99.90
25024;DHT22;13033;50.936;5.334;2023-09-19T10:07:32;19.30;99.90
25024;DHT22;13033;50.936;5.334;2023-09-19T10:10:02;19.30;99.90
25024;DHT22;13033;50.936;5.334;2023-09-19T10:12:48;19.30;99.90
25024;DHT22;13033;50.936;5.334;2023-09-19T10:15:18;19.40;99.90
25024;DHT22;13033;50.936;5.334;2023-09-19T10:17:47;19.60;99.90
25024;DHT22;13033;50.936;5.334;2023-09-19T10:20:17;19.80;99.90
25024;DHT22;13033;50.936;5.334;2023-09-19T10:23:10;19.80;99.90
25024;DHT22;13033;50.936;5.334;2023-09-19T10:25:40;19.60;99.90
25024;DHT22;13033;50.936;5.334;2023-09-19T10:28:10;19.60;99.90
25024;DHT22;13033;50.936;5.334;2023-09-19T10:30:38;19.40;99.90
25024;DHT22;13033;50.936;5.334;2023-09-19T10:33:13;19.50;99.90
25024;DHT22;13033;50.936;5.334;2023-09-19T10:35:42;19.60;99.90
25024;DHT22;13033;50.936;5.334;2023-09-19T10:38:11;19.50;99.90
25024;DHT22;13033;50.936;5.334;2023-09-19T10:40:38;19.50;99.90
25024;DHT22;13033;50.936;5.334;2023-09-19T10:43:15;19.50;99.90
25024;DHT22;13033;50.936;5.334;2023-09-19T10:45:48;19.50;99.90
25024;DHT22;13033;50.936;5.334;2023-09-19T10:48:19;19.60;99.90
25024;DHT22;13033;50.936;5.334;2023-09-19T10:50:52;19.50;99.90
25024;DHT22;13033;50.936;5.334;2023-09-19T10:53:20;19.60;99.90
25024;DHT22;13033;50.936;5.334;2023-09-19T10:55:58;19.60;99.90
25024;DHT22;13033;50.936;5.334;2023-09-19T10:58:30;19.70;99.90
25024;DHT22;13033;50.936;5.334;2023-09-19T11:01:00;19.90;99.90
25024;DHT22;13033;50.936;5.334;2023-09-19T11:03:35;19.90;99.90
25024;DHT22;13033;50.936;5.334;2023-09-19T11:06:15;19.90;99.90
25024;DHT22;13033;50.936;5.334;2023-09-19T11:11:44;20.10;99.90
25024;DHT22;13033;50.936;5.334;2023-09-19T11:30:31;20.70;99.90
25024;DHT22;13033;50.936;5.334;2023-09-19T11:33:20;20.40;99.90
25024;DHT22;13033;50.936;5.334;2023-09-19T11:43:53;20.80;99.90
25024;DHT22;13033;50.936;5.334;2023-09-19T11:46:21;20.80;99.90
25024;DHT22;13033;50.936;5.334;2023-09-19T11:48:51;20.90;99.90
25024;DHT22;13033;50.936;5.334;2023-09-19T11:51:21;21.00;99.90
25024;DHT22;13033;50.936;5.334;2023-09-19T11:53:50;21.10;99.90
25024;DHT22;13033;50.936;5.334;2023-09-19T11:56:16;21.20;99.90
25024;DHT22;13033;50.936;5.334;2023-09-19T11:58:45;21.30;99.90
25024;DHT22;13033;50.936;5.334;2023-09-19T12:01:19;21.30;99.90
25024;DHT22;13033;50.936;5.334;2023-09-19T12:03:47;21.20;99.90
25024;DHT22;13033;50.936;5.334;2023-09-19T12:06:15;20.90;99.90
25024;DHT22;13033;50.936;5.334;2023-09-19T12:08:42;20.90;99.90
25024;DHT22;13033;50.936;5.334;2023-09-19T12:11:13;21.10;99.90
25024;DHT22;13033;50.936;5.334;2023-09-19T12:13:47;21.30;99.90
25024;DHT22;13033;50.936;5.334;2023-09-19T12:16:20;21.20;99.90
25024;DHT22;13033;50.936;5.334;2023-09-19T12:18:50;21.10;99.90
25024;DHT22;13033;50.936;5.334;2023-09-19T12:21:29;21.40;99.90
25024;DHT22;13033;50.936;5.334;2023-09-19T12:24:07;21.40;99.90
25024;DHT22;13033;50.936;5.334;2023-09-19T12:26:43;21.40;99.90
25024;DHT22;13033;50.936;5.334;2023-09-19T12:29:13;21.30;99.90
25024;DHT22;13033;50.936;5.334;2023-09-19T12:31:52;21.30;99.90
25024;DHT22;13033;50.936;5.334;2023-09-19T12:34:26;21.30;99.90
25024;DHT22;13033;50.936;5.334;2023-09-19T12:39:50;21.80;99.90
25024;DHT22;13033;50.936;5.334;2023-09-19T12:42:24;21.60;99.90
25024;DHT22;13033;50.936;5.334;2023-09-19T12:44:51;21.60;99.90
25024;DHT22;13033;50.936;5.334;2023-09-19T12:47:22;21.70;99.90
25024;DHT22;13033;50.936;5.334;2023-09-19T12:52:40;21.50;99.90
25024;DHT22;13033;50.936;5.334;2023-09-19T12:55:06;21.40;99.90
25024;DHT22;13033;50.936;5.334;2023-09-19T12:57:36;21.20;99.90
25024;DHT22;13033;50.936;5.334;2023-09-19T13:00:03;21.40;99.90
25024;DHT22;13033;50.936;5.334;2023-09-19T13:02:31;21.50;99.90
25024;DHT22;13033;50.936;5.334;2023-09-19T13:04:58;21.60;99.90
25024;DHT22;13033;50.936;5.334;2023-09-19T13:07:42;21.70;99.90
25024;DHT22;13033;50.936;5.334;2023-09-19T13:10:14;21.70;99.90
25024;DHT22;13033;50.936;5.334;2023-09-19T13:12:43;21.50;99.90
25024;DHT22;13033;50.936;5.334;2023-09-19T13:15:15;21.50;99.90
25024;DHT22;13033;50.936;5.334;2023-09-19T13:17:49;21.60;99.90
25024;DHT22;13033;50.936;5.334;2023-09-19T13:20:25;21.60;99.90
25024;DHT22;13033;50.936;5.334;2023-09-19T13:22:55;21.40;99.90
25024;DHT22;13033;50.936;5.334;2023-09-19T13:25:25;21.20;99.90
25024;DHT22;13033;50.936;5.334;2023-09-19T13:27:55;21.10;99.90
25024;DHT22;13033;50.936;5.334;2023-09-19T13:30:23;21.30;99.90
25024;DHT22;13033;50.936;5.334;2023-09-19T13:32:51;21.30;99.90
25024;DHT22;13033;50.936;5.334;2023-09-19T13:35:18;21.40;99.90
25024;DHT22;13033;50.936;5.334;2023-09-19T13:37:44;21.40;99.90
25024;DHT22;13033;50.936;5.334;2023-09-19T13:40:15;21.30;99.90
25024;DHT22;13033;50.936;5.334;2023-09-19T13:42:41;21.40;99.90
25024;DHT22;13033;50.936;5.334;2023-09-19T13:45:07;21.60;99.90
25024;DHT22;13033;50.936;5.334;2023-09-19T13:47:37;21.60;99.90
25024;DHT22;13033;50.936;5.334;2023-09-19T13:50:04;21.50;99.90
25024;DHT22;13033;50.936;5.334;2023-09-19T13:52:33;21.60;99.90
25024;DHT22;13033;50.936;5.334;2023-09-19T13:55:00;21.70;99.90
25024;DHT22;13033;50.936;5.334;2023-09-19T13:57:31;21.80;99.90
25024;DHT22;13033;50.936;5.334;2023-09-19T13:59:58;21.80;99.90
25024;DHT22;13033;50.936;5.334;2023-09-19T14:02:24;21.70;99.90
25024;DHT22;13033;50.936;5.334;2023-09-19T14:04:53;21.40;99.90
25024;DHT22;13033;50.936;5.334;2023-09-19T14:07:21;21.00;99.90
25024;DHT22;13033;50.936;5.334;2023-09-19T14:09:47;21.00;99.90
25024;DHT22;13033;50.936;5.334;2023-09-19T14:12:13;21.00;99.90
25024;DHT22;13033;50.936;5.334;2023-09-19T14:14:39;20.90;99.90
25024;DHT22;13033;50.936;5.334;2023-09-19T14:17:05;20.90;99.90
25024;DHT22;13033;50.936;5.334;2023-09-19T14:19:32;20.70;99.90
25024;DHT22;13033;50.936;5.334;2023-09-19T14:21:58;20.70;99.90
25024;DHT22;13033;50.936;5.334;2023-09-19T14:24:25;20.80;99.90
25024;DHT22;13033;50.936;5.334;2023-09-19T14:26:51;21.00;99.90
25024;DHT22;13033;50.936;5.334;2023-09-19T14:29:17;21.10;99.90
25024;DHT22;13033;50.936;5.334;2023-09-19T14:31:43;20.90;99.90
25024;DHT22;13033;50.936;5.334;2023-09-19T14:34:09;20.60;99.90
25024;DHT22;13033;50.936;5.334;2023-09-19T14:36:38;20.60;99.90
25024;DHT22;13033;50.936;5.334;2023-09-19T14:39:06;20.60;99.90
25024;DHT22;13033;50.936;5.334;2023-09-19T14:41:33;20.80;99.90
25024;DHT22;13033;50.936;5.334;2023-09-19T14:43:59;20.80;99.90
25024;DHT22;13033;50.936;5.334;2023-09-19T14:46:25;20.90;99.90
25024;DHT22;13033;50.936;5.334;2023-09-19T14:48:53;21.10;99.90
25024;DHT22;13033;50.936;5.334;2023-09-19T14:51:19;21.20;99.90
25024;DHT22;13033;50.936;5.334;2023-09-19T14:53:46;21.40;99.90
25024;DHT22;13033;50.936;5.334;2023-09-19T14:56:12;21.40;99.90
25024;DHT22;13033;50.936;5.334;2023-09-19T14:58:41;21.10;99.90
25024;DHT22;13033;50.936;5.334;2023-09-19T15:01:11;20.90;99.90
25024;DHT22;13033;50.936;5.334;2023-09-19T15:03:38;20.70;99.90
25024;DHT22;13033;50.936;5.334;2023-09-19T15:06:09;20.80;99.90
25024;DHT22;13033;50.936;5.334;2023-09-19T15:08:38;20.80;99.90
25024;DHT22;13033;50.936;5.334;2023-09-19T15:11:07;20.80;99.90
25024;DHT22;13033;50.936;5.334;2023-09-19T15:13:34;20.80;99.90
25024;DHT22;13033;50.936;5.334;2023-09-19T15:16:07;20.70;99.90
25024;DHT22;13033;50.936;5.334;2023-09-19T15:18:40;20.70;99.90
25024;DHT22;13033;50.936;5.334;2023-09-19T15:21:08;20.60;99.90
25024;DHT22;13033;50.936;5.334;2023-09-19T15:23:35;20.80;99.90
25024;DHT22;13033;50.936;5.334;2023-09-19T15:26:02;20.80;99.90
25024;DHT22;13033;50.936;5.334;2023-09-19T15:28:28;21.00;99.90
25024;DHT22;13033;50.936;5.334;2023-09-19T15:31:01;20.90;99.90
25024;DHT22;13033;50.936;5.334;2023-09-19T15:33:27;21.10;99.90
25024;DHT22;13033;50.936;5.334;2023-09-19T15:36:11;20.80;99.90
25024;DHT22;13033;50.936;5.334;2023-09-19T15:39:05;21.00;99.90
25024;DHT22;13033;50.936;5.334;2023-09-19T15:41:34;21.00;99.90
25024;DHT22;13033;50.936;5.334;2023-09-19T15:44:01;21.30;99.90
25024;DHT22;13033;50.936;5.334;2023-09-19T15:46:32;21.80;99.90
25024;DHT22;13033;50.936;5.334;2023-09-19T15:49:01;21.80;99.90
25024;DHT22;13033;50.936;5.334;2023-09-19T15:51:27;21.40;99.90
25024;DHT22;13033;50.936;5.334;2023-09-19T15:53:54;21.10;99.90
25024;DHT22;13033;50.936;5.334;2023-09-19T15:56:22;20.80;99.90
25024;DHT22;13033;50.936;5.334;2023-09-19T15:58:49;20.60;99.90
25024;DHT22;13033;50.936;5.334;2023-09-19T16:01:15;20.60;99.90
25024;DHT22;13033;50.936;5.334;2023-09-19T16:03:47;20.60;99.90
25024;DHT22;13033;50.936;5.334;2023-09-19T16:06:16;20.30;99.90
25024;DHT22;13033;50.936;5.334;2023-09-19T16:08:47;20.40;99.90
25024;DHT22;13033;50.936;5.334;2023-09-19T16:11:13;20.20;99.90
25024;DHT22;13033;50.936;5.334;2023-09-19T16:13:40;20.10;99.90
25024;DHT22;13033;50.936;5.334;2023-09-19T16:16:11;20.20;99.90
25024;DHT22;13033;50.936;5.334;2023-09-19T16:18:39;20.10;99.90
25024;DHT22;13033;50.936;5.334;2023-09-19T16:21:08;20.20;99.90
25024;DHT22;13033;50.936;5.334;2023-09-19T16:23:34;20.10;99.90
25024;DHT22;13033;50.936;5.334;2023-09-19T16:26:09;20.10;99.90
25024;DHT22;13033;50.936;5.334;2023-09-19T16:28:36;20.00;99.90
25024;DHT22;13033;50.936;5.334;2023-09-19T16:31:02;20.10;99.90
25024;DHT22;13033;50.936;5.334;2023-09-19T16:33:33;20.10;99.90
25024;DHT22;13033;50.936;5.334;2023-09-19T16:35:59;20.10;99.90
25024;DHT22;13033;50.936;5.334;2023-09-19T16:38:26;20.00;99.90